Terminal Aerodrome Forecast
Issued by NWS Portland, ME

Home | Current Version | Previous Version | Text Only | Print | Product List | Glossary On
Versions: 1 2 3 4 5 6 7 8 9 10 11 12 13 14 15 16 17 18 19
000
FTUS41 KGYX 240834 AAA
TAFPWM
TAF AMD
KPWM 240834Z 2409/2506 23008KT P6SM FEW007
     FM241100 25007KT P6SM SCT050
     FM241300 27010KT P6SM SCT250
     FM250200 36005KT P6SM SKC=

USA.gov is the U.S. government's official web portal to all federal, state and local government web resources and services.